sensor_id;sensor_type;location;lat;lon;timestamp;P1;durP1;ratioP1;P2;durP2;ratioP2
22841;SDS011;11587;47.064;15.444;2023-03-11T00:01:53;0.20;;;0.20;;
22841;SDS011;11587;47.064;15.444;2023-03-11T00:04:19;0.15;;;0.15;;
22841;SDS011;11587;47.064;15.444;2023-03-11T00:06:45;0.20;;;0.20;;
22841;SDS011;11587;47.064;15.444;2023-03-11T00:09:11;0.20;;;0.20;;
22841;SDS011;11587;47.064;15.444;2023-03-11T00:11:37;0.20;;;0.20;;
22841;SDS011;11587;47.064;15.444;2023-03-11T00:14:03;0.20;;;0.20;;
22841;SDS011;11587;47.064;15.444;2023-03-11T00:16:29;0.10;;;0.10;;
22841;SDS011;11587;47.064;15.444;2023-03-11T00:18:55;0.20;;;0.20;;
22841;SDS011;11587;47.064;15.444;2023-03-11T00:21:22;0.20;;;0.20;;
22841;SDS011;11587;47.064;15.444;2023-03-11T00:23:48;0.20;;;0.20;;
22841;SDS011;11587;47.064;15.444;2023-03-11T00:26:14;0.20;;;0.20;;
22841;SDS011;11587;47.064;15.444;2023-03-11T00:28:40;0.20;;;0.20;;
22841;SDS011;11587;47.064;15.444;2023-03-11T00:31:06;0.20;;;0.20;;
22841;SDS011;11587;47.064;15.444;2023-03-11T00:33:32;0.20;;;0.20;;
22841;SDS011;11587;47.064;15.444;2023-03-11T00:35:58;0.20;;;0.20;;
22841;SDS011;11587;47.064;15.444;2023-03-11T00:38:24;0.20;;;0.20;;
22841;SDS011;11587;47.064;15.444;2023-03-11T00:40:50;0.20;;;0.20;;
22841;SDS011;11587;47.064;15.444;2023-03-11T00:43:16;0.20;;;0.20;;
22841;SDS011;11587;47.064;15.444;2023-03-11T00:45:42;0.20;;;0.20;;
22841;SDS011;11587;47.064;15.444;2023-03-11T00:48:09;0.20;;;0.20;;
22841;SDS011;11587;47.064;15.444;2023-03-11T00:50:36;0.20;;;0.20;;
22841;SDS011;11587;47.064;15.444;2023-03-11T00:53:03;0.20;;;0.20;;
22841;SDS011;11587;47.064;15.444;2023-03-11T00:55:30;0.20;;;0.20;;
22841;SDS011;11587;47.064;15.444;2023-03-11T00:57:57;0.20;;;0.20;;
22841;SDS011;11587;47.064;15.444;2023-03-11T01:00:24;0.10;;;0.10;;
22841;SDS011;11587;47.064;15.444;2023-03-11T01:02:51;0.20;;;0.20;;
22841;SDS011;11587;47.064;15.444;2023-03-11T01:05:22;0.20;;;0.20;;
22841;SDS011;11587;47.064;15.444;2023-03-11T01:07:48;0.20;;;0.20;;
22841;SDS011;11587;47.064;15.444;2023-03-11T01:10:14;0.20;;;0.20;;
22841;SDS011;11587;47.064;15.444;2023-03-11T01:12:40;0.20;;;0.20;;
22841;SDS011;11587;47.064;15.444;2023-03-11T01:15:07;0.20;;;0.20;;
22841;SDS011;11587;47.064;15.444;2023-03-11T01:17:34;0.20;;;0.20;;
22841;SDS011;11587;47.064;15.444;2023-03-11T01:20:00;0.20;;;0.20;;
22841;SDS011;11587;47.064;15.444;2023-03-11T01:22:26;0.20;;;0.20;;
22841;SDS011;11587;47.064;15.444;2023-03-11T01:24:52;0.20;;;0.20;;
22841;SDS011;11587;47.064;15.444;2023-03-11T01:27:18;0.20;;;0.20;;
22841;SDS011;11587;47.064;15.444;2023-03-11T01:29:44;0.20;;;0.20;;
22841;SDS011;11587;47.064;15.444;2023-03-11T01:32:10;0.20;;;0.20;;
22841;SDS011;11587;47.064;15.444;2023-03-11T01:34:36;0.20;;;0.20;;
22841;SDS011;11587;47.064;15.444;2023-03-11T01:37:02;0.20;;;0.20;;
22841;SDS011;11587;47.064;15.444;2023-03-11T01:39:29;0.20;;;0.20;;
22841;SDS011;11587;47.064;15.444;2023-03-11T01:41:55;0.20;;;0.20;;
22841;SDS011;11587;47.064;15.444;2023-03-11T01:44:21;0.20;;;0.20;;
22841;SDS011;11587;47.064;15.444;2023-03-11T01:49:16;0.20;;;0.20;;
22841;SDS011;11587;47.064;15.444;2023-03-11T01:51:43;0.20;;;0.20;;
22841;SDS011;11587;47.064;15.444;2023-03-11T01:54:10;0.30;;;0.30;;
22841;SDS011;11587;47.064;15.444;2023-03-11T01:56:38;0.20;;;0.20;;
22841;SDS011;11587;47.064;15.444;2023-03-11T01:59:06;0.20;;;0.20;;
22841;SDS011;11587;47.064;15.444;2023-03-11T02:01:32;0.20;;;0.20;;
22841;SDS011;11587;47.064;15.444;2023-03-11T02:04:00;0.20;;;0.20;;
22841;SDS011;11587;47.064;15.444;2023-03-11T02:06:27;0.20;;;0.20;;
22841;SDS011;11587;47.064;15.444;2023-03-11T02:08:53;0.20;;;0.20;;
22841;SDS011;11587;47.064;15.444;2023-03-11T02:11:23;0.20;;;0.20;;
22841;SDS011;11587;47.064;15.444;2023-03-11T02:13:50;0.20;;;0.20;;
22841;SDS011;11587;47.064;15.444;2023-03-11T02:16:17;0.20;;;0.20;;
22841;SDS011;11587;47.064;15.444;2023-03-11T02:18:43;0.20;;;0.20;;
22841;SDS011;11587;47.064;15.444;2023-03-11T02:21:24;0.20;;;0.20;;
22841;SDS011;11587;47.064;15.444;2023-03-11T02:27:08;0.20;;;0.20;;
22841;SDS011;11587;47.064;15.444;2023-03-11T02:29:08;0.20;;;0.20;;
22841;SDS011;11587;47.064;15.444;2023-03-11T02:31:36;0.20;;;0.20;;
22841;SDS011;11587;47.064;15.444;2023-03-11T02:34:03;0.20;;;0.20;;
22841;SDS011;11587;47.064;15.444;2023-03-11T02:36:37;0.20;;;0.20;;
22841;SDS011;11587;47.064;15.444;2023-03-11T02:39:04;0.20;;;0.20;;
22841;SDS011;11587;47.064;15.444;2023-03-11T02:41:31;0.20;;;0.20;;
22841;SDS011;11587;47.064;15.444;2023-03-11T02:43:58;0.30;;;0.30;;
22841;SDS011;11587;47.064;15.444;2023-03-11T02:46:24;0.30;;;0.30;;
22841;SDS011;11587;47.064;15.444;2023-03-11T02:48:51;0.20;;;0.20;;
22841;SDS011;11587;47.064;15.444;2023-03-11T02:51:17;0.20;;;0.20;;
22841;SDS011;11587;47.064;15.444;2023-03-11T02:53:47;0.20;;;0.20;;
22841;SDS011;11587;47.064;15.444;2023-03-11T02:56:14;0.28;;;0.28;;
22841;SDS011;11587;47.064;15.444;2023-03-11T02:58:40;0.20;;;0.20;;
22841;SDS011;11587;47.064;15.444;2023-03-11T03:01:06;0.20;;;0.20;;
22841;SDS011;11587;47.064;15.444;2023-03-11T03:03:32;0.40;;;0.40;;
22841;SDS011;11587;47.064;15.444;2023-03-11T03:05:58;0.40;;;0.40;;
22841;SDS011;11587;47.064;15.444;2023-03-11T03:08:24;0.40;;;0.40;;
22841;SDS011;11587;47.064;15.444;2023-03-11T03:10:50;0.40;;;0.40;;
22841;SDS011;11587;47.064;15.444;2023-03-11T03:13:17;0.40;;;0.40;;
22841;SDS011;11587;47.064;15.444;2023-03-11T03:15:43;0.40;;;0.40;;
22841;SDS011;11587;47.064;15.444;2023-03-11T03:18:09;0.40;;;0.40;;
22841;SDS011;11587;47.064;15.444;2023-03-11T03:20:36;0.20;;;0.20;;
22841;SDS011;11587;47.064;15.444;2023-03-11T03:23:02;0.22;;;0.22;;
22841;SDS011;11587;47.064;15.444;2023-03-11T03:25:28;0.20;;;0.20;;
22841;SDS011;11587;47.064;15.444;2023-03-11T03:27:54;0.20;;;0.20;;
22841;SDS011;11587;47.064;15.444;2023-03-11T03:30:20;0.20;;;0.20;;
22841;SDS011;11587;47.064;15.444;2023-03-11T03:32:46;0.20;;;0.20;;
22841;SDS011;11587;47.064;15.444;2023-03-11T03:35:12;0.20;;;0.20;;
22841;SDS011;11587;47.064;15.444;2023-03-11T03:37:38;0.20;;;0.20;;
22841;SDS011;11587;47.064;15.444;2023-03-11T03:40:04;0.20;;;0.20;;
22841;SDS011;11587;47.064;15.444;2023-03-11T03:42:36;0.20;;;0.20;;
22841;SDS011;11587;47.064;15.444;2023-03-11T03:45:04;0.20;;;0.20;;
22841;SDS011;11587;47.064;15.444;2023-03-11T03:47:30;0.20;;;0.20;;
22841;SDS011;11587;47.064;15.444;2023-03-11T03:49:56;0.20;;;0.20;;
22841;SDS011;11587;47.064;15.444;2023-03-11T03:52:22;0.20;;;0.20;;
22841;SDS011;11587;47.064;15.444;2023-03-11T03:54:48;0.20;;;0.20;;
22841;SDS011;11587;47.064;15.444;2023-03-11T03:57:14;0.28;;;0.28;;
22841;SDS011;11587;47.064;15.444;2023-03-11T03:59:40;0.20;;;0.20;;
22841;SDS011;11587;47.064;15.444;2023-03-11T04:02:06;0.20;;;0.20;;
22841;SDS011;11587;47.064;15.444;2023-03-11T04:04:32;0.20;;;0.20;;
22841;SDS011;11587;47.064;15.444;2023-03-11T04:06:58;0.20;;;0.20;;
22841;SDS011;11587;47.064;15.444;2023-03-11T04:09:24;0.20;;;0.20;;
22841;SDS011;11587;47.064;15.444;2023-03-11T04:11:51;0.20;;;0.20;;
22841;SDS011;11587;47.064;15.444;2023-03-11T04:14:17;0.20;;;0.20;;
22841;SDS011;11587;47.064;15.444;2023-03-11T04:16:43;0.20;;;0.20;;
22841;SDS011;11587;47.064;15.444;2023-03-11T04:19:09;0.20;;;0.20;;
22841;SDS011;11587;47.064;15.444;2023-03-11T04:21:35;0.20;;;0.20;;
22841;SDS011;11587;47.064;15.444;2023-03-11T04:24:01;0.20;;;0.20;;
22841;SDS011;11587;47.064;15.444;2023-03-11T04:26:27;0.20;;;0.20;;
22841;SDS011;11587;47.064;15.444;2023-03-11T04:28:53;0.30;;;0.30;;
22841;SDS011;11587;47.064;15.444;2023-03-11T04:31:19;0.20;;;0.20;;
22841;SDS011;11587;47.064;15.444;2023-03-11T04:33:45;0.20;;;0.20;;
22841;SDS011;11587;47.064;15.444;2023-03-11T04:36:11;0.20;;;0.20;;
22841;SDS011;11587;47.064;15.444;2023-03-11T04:38:38;0.20;;;0.20;;
22841;SDS011;11587;47.064;15.444;2023-03-11T04:41:04;0.20;;;0.20;;
22841;SDS011;11587;47.064;15.444;2023-03-11T04:43:31;0.20;;;0.20;;
22841;SDS011;11587;47.064;15.444;2023-03-11T04:45:57;0.25;;;0.25;;
22841;SDS011;11587;47.064;15.444;2023-03-11T04:48:23;0.20;;;0.20;;
22841;SDS011;11587;47.064;15.444;2023-03-11T04:50:51;0.20;;;0.20;;
22841;SDS011;11587;47.064;15.444;2023-03-11T04:53:17;0.20;;;0.20;;
22841;SDS011;11587;47.064;15.444;2023-03-11T04:55:43;0.20;;;0.20;;
22841;SDS011;11587;47.064;15.444;2023-03-11T04:58:11;0.20;;;0.20;;
22841;SDS011;11587;47.064;15.444;2023-03-11T05:00:37;0.20;;;0.20;;
22841;SDS011;11587;47.064;15.444;2023-03-11T05:03:03;0.20;;;0.20;;
22841;SDS011;11587;47.064;15.444;2023-03-11T05:05:29;0.20;;;0.20;;
22841;SDS011;11587;47.064;15.444;2023-03-11T05:07:55;0.20;;;0.20;;
22841;SDS011;11587;47.064;15.444;2023-03-11T05:10:21;0.20;;;0.20;;
22841;SDS011;11587;47.064;15.444;2023-03-11T05:12:48;0.20;;;0.20;;
22841;SDS011;11587;47.064;15.444;2023-03-11T05:15:14;0.20;;;0.20;;
22841;SDS011;11587;47.064;15.444;2023-03-11T05:17:40;0.20;;;0.20;;
22841;SDS011;11587;47.064;15.444;2023-03-11T05:20:07;0.20;;;0.20;;
22841;SDS011;11587;47.064;15.444;2023-03-11T05:22:33;0.20;;;0.20;;
22841;SDS011;11587;47.064;15.444;2023-03-11T05:24:59;0.20;;;0.20;;
22841;SDS011;11587;47.064;15.444;2023-03-11T05:27:25;0.20;;;0.20;;
22841;SDS011;11587;47.064;15.444;2023-03-11T05:29:51;0.20;;;0.20;;
22841;SDS011;11587;47.064;15.444;2023-03-11T05:32:17;0.20;;;0.20;;
22841;SDS011;11587;47.064;15.444;2023-03-11T05:34:43;0.20;;;0.20;;
22841;SDS011;11587;47.064;15.444;2023-03-11T05:37:10;0.20;;;0.20;;
22841;SDS011;11587;47.064;15.444;2023-03-11T05:39:36;0.30;;;0.30;;
22841;SDS011;11587;47.064;15.444;2023-03-11T05:42:03;0.20;;;0.20;;
22841;SDS011;11587;47.064;15.444;2023-03-11T05:44:29;0.20;;;0.20;;
22841;SDS011;11587;47.064;15.444;2023-03-11T05:46:55;0.20;;;0.20;;
22841;SDS011;11587;47.064;15.444;2023-03-11T05:49:21;0.20;;;0.20;;
22841;SDS011;11587;47.064;15.444;2023-03-11T05:51:48;0.20;;;0.20;;
22841;SDS011;11587;47.064;15.444;2023-03-11T05:54:14;0.20;;;0.20;;
22841;SDS011;11587;47.064;15.444;2023-03-11T05:56:41;0.20;;;0.20;;
22841;SDS011;11587;47.064;15.444;2023-03-11T05:59:07;0.20;;;0.20;;
22841;SDS011;11587;47.064;15.444;2023-03-11T06:01:33;0.20;;;0.20;;
22841;SDS011;11587;47.064;15.444;2023-03-11T06:03:59;0.20;;;0.20;;
22841;SDS011;11587;47.064;15.444;2023-03-11T06:06:26;0.20;;;0.20;;
22841;SDS011;11587;47.064;15.444;2023-03-11T06:08:52;0.20;;;0.20;;
22841;SDS011;11587;47.064;15.444;2023-03-11T06:11:19;0.20;;;0.20;;
22841;SDS011;11587;47.064;15.444;2023-03-11T06:13:45;0.20;;;0.20;;
22841;SDS011;11587;47.064;15.444;2023-03-11T06:16:11;0.20;;;0.20;;
22841;SDS011;11587;47.064;15.444;2023-03-11T06:18:37;0.20;;;0.20;;
22841;SDS011;11587;47.064;15.444;2023-03-11T06:21:03;0.30;;;0.30;;
22841;SDS011;11587;47.064;15.444;2023-03-11T06:23:29;0.20;;;0.20;;
22841;SDS011;11587;47.064;15.444;2023-03-11T06:28:22;0.20;;;0.20;;
22841;SDS011;11587;47.064;15.444;2023-03-11T06:30:48;0.20;;;0.20;;
22841;SDS011;11587;47.064;15.444;2023-03-11T06:33:14;0.20;;;0.20;;
22841;SDS011;11587;47.064;15.444;2023-03-11T06:35:40;0.20;;;0.20;;
22841;SDS011;11587;47.064;15.444;2023-03-11T06:38:06;0.20;;;0.20;;
22841;SDS011;11587;47.064;15.444;2023-03-11T06:40:32;0.20;;;0.20;;
22841;SDS011;11587;47.064;15.444;2023-03-11T06:42:58;0.20;;;0.20;;
22841;SDS011;11587;47.064;15.444;2023-03-11T06:45:24;0.20;;;0.20;;
22841;SDS011;11587;47.064;15.444;2023-03-11T06:47:50;0.20;;;0.20;;
22841;SDS011;11587;47.064;15.444;2023-03-11T06:50:16;0.20;;;0.20;;
22841;SDS011;11587;47.064;15.444;2023-03-11T06:52:42;0.20;;;0.20;;
22841;SDS011;11587;47.064;15.444;2023-03-11T06:55:08;0.20;;;0.20;;
22841;SDS011;11587;47.064;15.444;2023-03-11T06:57:34;0.20;;;0.20;;
22841;SDS011;11587;47.064;15.444;2023-03-11T07:00:00;0.20;;;0.20;;
22841;SDS011;11587;47.064;15.444;2023-03-11T07:02:30;0.20;;;0.20;;
22841;SDS011;11587;47.064;15.444;2023-03-11T07:04:56;0.20;;;0.20;;
22841;SDS011;11587;47.064;15.444;2023-03-11T07:07:22;0.20;;;0.20;;
22841;SDS011;11587;47.064;15.444;2023-03-11T07:09:48;0.20;;;0.20;;
22841;SDS011;11587;47.064;15.444;2023-03-11T07:12:14;0.20;;;0.20;;
22841;SDS011;11587;47.064;15.444;2023-03-11T07:14:40;0.20;;;0.20;;
22841;SDS011;11587;47.064;15.444;2023-03-11T07:17:06;0.20;;;0.20;;
22841;SDS011;11587;47.064;15.444;2023-03-11T07:19:32;0.20;;;0.20;;
22841;SDS011;11587;47.064;15.444;2023-03-11T07:21:58;0.20;;;0.20;;
22841;SDS011;11587;47.064;15.444;2023-03-11T07:24:24;0.20;;;0.20;;
22841;SDS011;11587;47.064;15.444;2023-03-11T07:26:50;0.20;;;0.20;;
22841;SDS011;11587;47.064;15.444;2023-03-11T07:29:16;0.20;;;0.20;;
22841;SDS011;11587;47.064;15.444;2023-03-11T07:31:43;0.20;;;0.20;;
22841;SDS011;11587;47.064;15.444;2023-03-11T07:34:10;0.20;;;0.20;;
22841;SDS011;11587;47.064;15.444;2023-03-11T07:36:38;0.30;;;0.30;;
22841;SDS011;11587;47.064;15.444;2023-03-11T07:39:04;0.20;;;0.20;;
22841;SDS011;11587;47.064;15.444;2023-03-11T07:41:31;0.20;;;0.20;;
22841;SDS011;11587;47.064;15.444;2023-03-11T07:43:58;0.20;;;0.20;;
22841;SDS011;11587;47.064;15.444;2023-03-11T07:46:25;0.20;;;0.20;;
22841;SDS011;11587;47.064;15.444;2023-03-11T07:48:51;0.20;;;0.20;;
22841;SDS011;11587;47.064;15.444;2023-03-11T07:51:19;0.20;;;0.20;;
22841;SDS011;11587;47.064;15.444;2023-03-11T07:53:45;0.20;;;0.20;;
22841;SDS011;11587;47.064;15.444;2023-03-11T07:56:12;0.20;;;0.20;;
22841;SDS011;11587;47.064;15.444;2023-03-11T07:58:38;0.20;;;0.20;;
22841;SDS011;11587;47.064;15.444;2023-03-11T08:01:09;0.20;;;0.20;;
22841;SDS011;11587;47.064;15.444;2023-03-11T08:03:35;0.20;;;0.20;;
22841;SDS011;11587;47.064;15.444;2023-03-11T08:06:07;0.20;;;0.20;;
22841;SDS011;11587;47.064;15.444;2023-03-11T08:08:36;0.20;;;0.20;;
22841;SDS011;11587;47.064;15.444;2023-03-11T08:11:02;0.20;;;0.20;;
22841;SDS011;11587;47.064;15.444;2023-03-11T08:13:28;0.20;;;0.20;;
22841;SDS011;11587;47.064;15.444;2023-03-11T08:15:54;0.20;;;0.20;;
22841;SDS011;11587;47.064;15.444;2023-03-11T08:18:20;0.20;;;0.20;;
22841;SDS011;11587;47.064;15.444;2023-03-11T08:20:46;0.20;;;0.20;;
22841;SDS011;11587;47.064;15.444;2023-03-11T08:23:12;0.20;;;0.20;;
22841;SDS011;11587;47.064;15.444;2023-03-11T08:25:39;0.20;;;0.20;;
22841;SDS011;11587;47.064;15.444;2023-03-11T08:28:06;0.20;;;0.20;;
22841;SDS011;11587;47.064;15.444;2023-03-11T08:30:33;0.20;;;0.20;;
22841;SDS011;11587;47.064;15.444;2023-03-11T08:32:59;0.20;;;0.20;;
22841;SDS011;11587;47.064;15.444;2023-03-11T08:35:25;0.20;;;0.20;;
22841;SDS011;11587;47.064;15.444;2023-03-11T08:37:51;0.20;;;0.20;;
22841;SDS011;11587;47.064;15.444;2023-03-11T08:40:17;0.20;;;0.20;;
22841;SDS011;11587;47.064;15.444;2023-03-11T08:42:43;0.20;;;0.20;;
22841;SDS011;11587;47.064;15.444;2023-03-11T08:45:10;0.20;;;0.20;;
22841;SDS011;11587;47.064;15.444;2023-03-11T08:47:36;0.20;;;0.20;;
22841;SDS011;11587;47.064;15.444;2023-03-11T08:50:03;0.20;;;0.20;;
22841;SDS011;11587;47.064;15.444;2023-03-11T08:52:29;0.20;;;0.20;;
22841;SDS011;11587;47.064;15.444;2023-03-11T08:54:55;0.20;;;0.20;;
22841;SDS011;11587;47.064;15.444;2023-03-11T08:57:21;0.20;;;0.20;;
22841;SDS011;11587;47.064;15.444;2023-03-11T08:59:48;0.20;;;0.20;;
22841;SDS011;11587;47.064;15.444;2023-03-11T09:02:14;0.20;;;0.20;;
22841;SDS011;11587;47.064;15.444;2023-03-11T09:04:40;0.25;;;0.25;;
22841;SDS011;11587;47.064;15.444;2023-03-11T09:07:06;0.40;;;0.40;;
22841;SDS011;11587;47.064;15.444;2023-03-11T09:09:32;0.40;;;0.40;;
22841;SDS011;11587;47.064;15.444;2023-03-11T09:11:58;0.40;;;0.40;;
22841;SDS011;11587;47.064;15.444;2023-03-11T09:14:24;0.40;;;0.40;;
22841;SDS011;11587;47.064;15.444;2023-03-11T09:16:50;0.32;;;0.32;;
22841;SDS011;11587;47.064;15.444;2023-03-11T09:19:16;0.40;;;0.40;;
22841;SDS011;11587;47.064;15.444;2023-03-11T09:21:42;0.40;;;0.40;;
22841;SDS011;11587;47.064;15.444;2023-03-11T09:24:08;0.40;;;0.40;;
22841;SDS011;11587;47.064;15.444;2023-03-11T09:26:34;0.30;;;0.30;;
22841;SDS011;11587;47.064;15.444;2023-03-11T09:29:00;0.40;;;0.40;;
22841;SDS011;11587;47.064;15.444;2023-03-11T09:31:26;0.30;;;0.30;;
22841;SDS011;11587;47.064;15.444;2023-03-11T09:33:52;0.40;;;0.40;;
22841;SDS011;11587;47.064;15.444;2023-03-11T09:36:20;0.40;;;0.40;;
22841;SDS011;11587;47.064;15.444;2023-03-11T09:38:47;0.40;;;0.40;;
22841;SDS011;11587;47.064;15.444;2023-03-11T09:43:58;0.40;;;0.40;;
22841;SDS011;11587;47.064;15.444;2023-03-11T09:46:29;0.38;;;0.38;;
22841;SDS011;11587;47.064;15.444;2023-03-11T09:49:13;0.30;;;0.30;;
22841;SDS011;11587;47.064;15.444;2023-03-11T09:51:44;0.20;;;0.20;;
22841;SDS011;11587;47.064;15.444;2023-03-11T09:54:11;0.45;;;0.45;;
22841;SDS011;11587;47.064;15.444;2023-03-11T09:56:38;0.40;;;0.40;;
22841;SDS011;11587;47.064;15.444;2023-03-11T09:59:26;0.40;;;0.40;;
22841;SDS011;11587;47.064;15.444;2023-03-11T10:01:52;0.40;;;0.40;;
22841;SDS011;11587;47.064;15.444;2023-03-11T10:04:29;0.30;;;0.30;;
22841;SDS011;11587;47.064;15.444;2023-03-11T10:06:56;0.30;;;0.30;;
22841;SDS011;11587;47.064;15.444;2023-03-11T10:09:40;0.30;;;0.30;;
22841;SDS011;11587;47.064;15.444;2023-03-11T10:15:37;0.30;;;0.30;;
22841;SDS011;11587;47.064;15.444;2023-03-11T10:27:54;0.30;;;0.30;;
22841;SDS011;11587;47.064;15.444;2023-03-11T10:30:25;0.30;;;0.30;;
22841;SDS011;11587;47.064;15.444;2023-03-11T10:33:00;0.30;;;0.30;;
22841;SDS011;11587;47.064;15.444;2023-03-11T10:35:40;0.40;;;0.40;;
22841;SDS011;11587;47.064;15.444;2023-03-11T10:40:37;0.30;;;0.30;;
22841;SDS011;11587;47.064;15.444;2023-03-11T10:43:09;0.40;;;0.40;;
22841;SDS011;11587;47.064;15.444;2023-03-11T10:45:37;0.30;;;0.30;;
22841;SDS011;11587;47.064;15.444;2023-03-11T10:48:12;0.38;;;0.38;;
22841;SDS011;11587;47.064;15.444;2023-03-11T10:50:41;0.30;;;0.30;;
22841;SDS011;11587;47.064;15.444;2023-03-11T10:53:09;0.30;;;0.30;;
22841;SDS011;11587;47.064;15.444;2023-03-11T10:55:59;0.30;;;0.30;;
22841;SDS011;11587;47.064;15.444;2023-03-11T10:58:25;0.20;;;0.20;;
22841;SDS011;11587;47.064;15.444;2023-03-11T11:01:06;0.20;;;0.20;;
22841;SDS011;11587;47.064;15.444;2023-03-11T11:03:37;0.20;;;0.20;;
22841;SDS011;11587;47.064;15.444;2023-03-11T11:06:06;0.15;;;0.15;;
22841;SDS011;11587;47.064;15.444;2023-03-11T11:08:43;0.10;;;0.10;;
22841;SDS011;11587;47.064;15.444;2023-03-11T11:11:21;0.10;;;0.10;;
22841;SDS011;11587;47.064;15.444;2023-03-11T11:14:05;0.03;;;0.03;;
22841;SDS011;11587;47.064;15.444;2023-03-11T11:16:33;0.10;;;0.10;;
22841;SDS011;11587;47.064;15.444;2023-03-11T11:19:04;0.00;;;0.00;;
22841;SDS011;11587;47.064;15.444;2023-03-11T11:21:33;0.00;;;0.00;;
22841;SDS011;11587;47.064;15.444;2023-03-11T11:26:33;0.00;;;0.00;;
22841;SDS011;11587;47.064;15.444;2023-03-11T11:29:10;0.00;;;0.00;;
22841;SDS011;11587;47.064;15.444;2023-03-11T11:31:38;0.00;;;0.00;;
22841;SDS011;11587;47.064;15.444;2023-03-11T11:36:49;0.00;;;0.00;;
22841;SDS011;11587;47.064;15.444;2023-03-11T11:39:16;0.00;;;0.00;;
22841;SDS011;11587;47.064;15.444;2023-03-11T11:41:44;0.00;;;0.00;;
22841;SDS011;11587;47.064;15.444;2023-03-11T11:44:14;0.00;;;0.00;;
22841;SDS011;11587;47.064;15.444;2023-03-11T11:46:46;0.00;;;0.00;;
22841;SDS011;11587;47.064;15.444;2023-03-11T11:51:41;0.00;;;0.00;;
22841;SDS011;11587;47.064;15.444;2023-03-11T11:54:14;0.00;;;0.00;;
22841;SDS011;11587;47.064;15.444;2023-03-11T11:56:41;0.00;;;0.00;;
22841;SDS011;11587;47.064;15.444;2023-03-11T11:59:18;0.00;;;0.00;;
22841;SDS011;11587;47.064;15.444;2023-03-11T12:01:54;0.00;;;0.00;;
22841;SDS011;11587;47.064;15.444;2023-03-11T12:09:47;0.00;;;0.00;;
22841;SDS011;11587;47.064;15.444;2023-03-11T12:15:06;0.00;;;0.00;;
22841;SDS011;11587;47.064;15.444;2023-03-11T12:17:31;0.00;;;0.00;;
22841;SDS011;11587;47.064;15.444;2023-03-11T12:20:02;0.00;;;0.00;;
22841;SDS011;11587;47.064;15.444;2023-03-11T12:27:50;0.00;;;0.00;;
22841;SDS011;11587;47.064;15.444;2023-03-11T12:30:25;0.00;;;0.00;;
22841;SDS011;11587;47.064;15.444;2023-03-11T12:33:01;0.00;;;0.00;;
22841;SDS011;11587;47.064;15.444;2023-03-11T12:35:31;0.00;;;0.00;;
22841;SDS011;11587;47.064;15.444;2023-03-11T12:40:44;0.00;;;0.00;;
22841;SDS011;11587;47.064;15.444;2023-03-11T12:43:27;0.00;;;0.00;;
22841;SDS011;11587;47.064;15.444;2023-03-11T12:46:03;0.00;;;0.00;;
22841;SDS011;11587;47.064;15.444;2023-03-11T12:48:31;0.00;;;0.00;;
22841;SDS011;11587;47.064;15.444;2023-03-11T12:50:57;0.00;;;0.00;;
22841;SDS011;11587;47.064;15.444;2023-03-11T12:58:56;0.00;;;0.00;;
22841;SDS011;11587;47.064;15.444;2023-03-11T13:01:33;0.00;;;0.00;;
22841;SDS011;11587;47.064;15.444;2023-03-11T13:06:49;0.00;;;0.00;;
22841;SDS011;11587;47.064;15.444;2023-03-11T13:09:17;0.00;;;0.00;;
22841;SDS011;11587;47.064;15.444;2023-03-11T13:11:44;0.00;;;0.00;;
22841;SDS011;11587;47.064;15.444;2023-03-11T13:16:40;0.00;;;0.00;;
22841;SDS011;11587;47.064;15.444;2023-03-11T13:21:52;0.00;;;0.00;;
22841;SDS011;11587;47.064;15.444;2023-03-11T13:34:44;0.00;;;0.00;;
22841;SDS011;11587;47.064;15.444;2023-03-11T13:40:06;0.00;;;0.00;;
22841;SDS011;11587;47.064;15.444;2023-03-11T13:47:48;0.00;;;0.00;;
22841;SDS011;11587;47.064;15.444;2023-03-11T13:50:25;0.00;;;0.00;;
22841;SDS011;11587;47.064;15.444;2023-03-11T13:52:53;0.00;;;0.00;;
22841;SDS011;11587;47.064;15.444;2023-03-11T13:55:20;0.00;;;0.00;;
22841;SDS011;11587;47.064;15.444;2023-03-11T13:57:50;0.00;;;0.00;;
22841;SDS011;11587;47.064;15.444;2023-03-11T14:00:22;0.00;;;0.00;;
22841;SDS011;11587;47.064;15.444;2023-03-11T14:02:49;0.00;;;0.00;;
22841;SDS011;11587;47.064;15.444;2023-03-11T14:05:16;0.00;;;0.00;;
22841;SDS011;11587;47.064;15.444;2023-03-11T14:07:44;0.00;;;0.00;;
22841;SDS011;11587;47.064;15.444;2023-03-11T14:12:37;0.00;;;0.00;;
22841;SDS011;11587;47.064;15.444;2023-03-11T14:15:03;0.00;;;0.00;;
22841;SDS011;11587;47.064;15.444;2023-03-11T14:17:30;0.00;;;0.00;;
22841;SDS011;11587;47.064;15.444;2023-03-11T14:20:04;0.00;;;0.00;;
22841;SDS011;11587;47.064;15.444;2023-03-11T14:22:31;0.00;;;0.00;;
22841;SDS011;11587;47.064;15.444;2023-03-11T14:24:57;0.00;;;0.00;;
22841;SDS011;11587;47.064;15.444;2023-03-11T14:27:25;0.00;;;0.00;;
22841;SDS011;11587;47.064;15.444;2023-03-11T14:29:51;0.00;;;0.00;;
22841;SDS011;11587;47.064;15.444;2023-03-11T14:37:24;0.00;;;0.00;;
22841;SDS011;11587;47.064;15.444;2023-03-11T14:39:50;0.00;;;0.00;;
22841;SDS011;11587;47.064;15.444;2023-03-11T14:42:21;0.10;;;0.10;;
22841;SDS011;11587;47.064;15.444;2023-03-11T14:50:04;0.17;;;0.17;;
22841;SDS011;11587;47.064;15.444;2023-03-11T14:52:42;0.20;;;0.20;;
22841;SDS011;11587;47.064;15.444;2023-03-11T14:55:17;0.20;;;0.20;;
22841;SDS011;11587;47.064;15.444;2023-03-11T14:57:46;0.20;;;0.20;;
22841;SDS011;11587;47.064;15.444;2023-03-11T15:03:22;0.28;;;0.28;;
22841;SDS011;11587;47.064;15.444;2023-03-11T15:05:53;0.20;;;0.20;;
22841;SDS011;11587;47.064;15.444;2023-03-11T15:08:21;0.30;;;0.30;;
22841;SDS011;11587;47.064;15.444;2023-03-11T15:13:25;0.30;;;0.30;;
22841;SDS011;11587;47.064;15.444;2023-03-11T15:15:58;0.20;;;0.20;;
22841;SDS011;11587;47.064;15.444;2023-03-11T15:18:29;0.10;;;0.10;;
22841;SDS011;11587;47.064;15.444;2023-03-11T15:21:12;0.20;;;0.20;;
22841;SDS011;11587;47.064;15.444;2023-03-11T15:23:39;0.20;;;0.20;;
22841;SDS011;11587;47.064;15.444;2023-03-11T15:26:25;0.10;;;0.10;;
22841;SDS011;11587;47.064;15.444;2023-03-11T15:28:53;0.20;;;0.20;;
22841;SDS011;11587;47.064;15.444;2023-03-11T15:33:46;0.20;;;0.20;;
22841;SDS011;11587;47.064;15.444;2023-03-11T15:41:43;0.10;;;0.10;;
22841;SDS011;11587;47.064;15.444;2023-03-11T15:44:21;0.20;;;0.20;;
22841;SDS011;11587;47.064;15.444;2023-03-11T15:46:47;0.10;;;0.10;;
22841;SDS011;11587;47.064;15.444;2023-03-11T15:49:13;0.10;;;0.10;;
22841;SDS011;11587;47.064;15.444;2023-03-11T15:51:43;0.20;;;0.20;;
22841;SDS011;11587;47.064;15.444;2023-03-11T15:54:09;0.20;;;0.20;;
22841;SDS011;11587;47.064;15.444;2023-03-11T15:56:35;0.10;;;0.10;;
22841;SDS011;11587;47.064;15.444;2023-03-11T15:59:01;0.30;;;0.30;;
22841;SDS011;11587;47.064;15.444;2023-03-11T16:01:27;0.30;;;0.30;;
22841;SDS011;11587;47.064;15.444;2023-03-11T16:03:54;0.30;;;0.30;;
22841;SDS011;11587;47.064;15.444;2023-03-11T16:06:20;0.30;;;0.30;;
22841;SDS011;11587;47.064;15.444;2023-03-11T16:08:47;0.32;;;0.32;;
22841;SDS011;11587;47.064;15.444;2023-03-11T16:11:13;0.30;;;0.30;;
22841;SDS011;11587;47.064;15.444;2023-03-11T16:13:39;0.40;;;0.40;;
22841;SDS011;11587;47.064;15.444;2023-03-11T16:16:07;0.30;;;0.30;;
22841;SDS011;11587;47.064;15.444;2023-03-11T16:18:34;0.30;;;0.30;;
22841;SDS011;11587;47.064;15.444;2023-03-11T16:21:01;0.10;;;0.10;;
22841;SDS011;11587;47.064;15.444;2023-03-11T16:23:33;0.20;;;0.20;;
22841;SDS011;11587;47.064;15.444;2023-03-11T16:26:02;0.20;;;0.20;;